»·PEaware :: N583CA KSAN-KDAG

N583CA :: KSAN-KDAG

FLIGHT INFORMATION

Flight Status: Arrived
Operator: Privately registered:
United States
More flights under this callsign
Pilot: Scott G. (88)
Aircraft: CESSNA 340
(C340)
More flights by this aircraft type
Origin: KSAN San Diego Intl-Lindbergh
United States
Destination: KDAG Barstow-Daggett
United States
More flights between these airports :: More routes between these airports
Route: +
File this flight plan on PilotEdge
Remarks:
Altitude:
(Current/Filed)
7,500ft
Speed:
(Current/Filed)
0kts
Departed: 31-Mar-17 08:07 AM
Arrived: 31-Mar-17 09:08 AM
Distance/Time
Traveled:
129nm/1:00
Distance/Time
To Go:
Arrived

Flight Plot

Page will automatically refresh every two minutes.

Flight plan parsing failed; only flown route is shown


Map Options




Map Legend


Flown Route
Filed Route
Departure Airport
Arrival Airport
Navaid (VOR, NDB)
Fix

Horizontal Profiles

Position Reports

Time Latitude Longitude Heading Altitude Ground
Speed
31-Mar-17 07:53 32.732096 -117.177107 234 20ft 0kts
31-Mar-17 07:54 32.732096 -117.177107 234 20ft 0kts
31-Mar-17 07:55 32.732096 -117.177107 234 20ft 0kts
31-Mar-17 07:56 32.732096 -117.177107 234 20ft 0kts
31-Mar-17 07:57 32.732096 -117.177107 234 20ft 0kts
31-Mar-17 07:58 32.732096 -117.177107 234 20ft 0kts
31-Mar-17 07:59 32.732096 -117.177107 234 20ft 0kts
31-Mar-17 08:00 32.732096 -117.177107 234 20ft 0kts
31-Mar-17 08:01 32.732096 -117.177107 234 20ft 0kts
31-Mar-17 08:02 32.732096 -117.177107 234 20ft 0kts
31-Mar-17 08:03 32.731093 -117.175286 96 20ft 10kts
31-Mar-17 08:04 32.730918 -117.175206 262 20ft 0kts
31-Mar-17 08:05 32.730918 -117.175206 262 20ft 0kts
31-Mar-17 08:06 32.730918 -117.175205 262 20ft 0kts
31-Mar-17 08:07 32.730220 -117.175951 284 21ft 22kts
31-Mar-17 08:08 32.739996 -117.206489 319 1042ft 112kts
31-Mar-17 08:09 32.765999 -117.233145 321 1740ft 148kts
31-Mar-17 08:10 32.797499 -117.253185 0 1719ft 143kts
31-Mar-17 08:11 32.838496 -117.253498 1 1729ft 149kts
31-Mar-17 08:12 32.877585 -117.254809 358 2318ft 135kts
31-Mar-17 08:13 32.914382 -117.254913 4 3037ft 132kts
31-Mar-17 08:14 32.950367 -117.253365 14 3888ft 119kts
31-Mar-17 08:15 32.980052 -117.240581 34 5106ft 110kts
31-Mar-17 08:16 33.008857 -117.228324 24 6321ft 111kts
31-Mar-17 08:17 33.037052 -117.214326 19 7312ft 123kts
31-Mar-17 08:18 33.076985 -117.203804 16 7279ft 161kts
31-Mar-17 08:19 33.113592 -117.190480 19 7278ft 168kts
31-Mar-17 08:20 33.158068 -117.172505 20 7277ft 171kts
31-Mar-17 08:21 33.202723 -117.154040 20 7277ft 171kts
31-Mar-17 08:22 33.247369 -117.135492 20 7276ft 171kts
31-Mar-17 08:23 33.292082 -117.116880 20 7276ft 171kts
31-Mar-17 08:24 33.336829 -117.098169 20 7277ft 171kts
31-Mar-17 08:25 33.381522 -117.079489 19 7277ft 170kts
31-Mar-17 08:26 33.425048 -117.061316 19 7526ft 163kts
31-Mar-17 08:27 33.468582 -117.042992 19 7526ft 168kts
31-Mar-17 08:28 33.512533 -117.024504 18 7514ft 167kts
31-Mar-17 08:29 33.556246 -117.006136 18 7501ft 166kts
31-Mar-17 08:30 33.599788 -116.987813 18 7487ft 165kts
31-Mar-17 08:31 33.643062 -116.969592 19 7483ft 164kts
31-Mar-17 08:32 33.686004 -116.951443 19 7480ft 163kts
31-Mar-17 08:33 33.724951 -116.934981 20 7478ft 163kts
31-Mar-17 08:34 33.764809 -116.918090 20 7479ft 169kts
31-Mar-17 08:35 33.807592 -116.894380 27 7473ft 171kts
31-Mar-17 08:36 33.845864 -116.871434 24 7484ft 171kts
31-Mar-17 08:37 33.888396 -116.845621 22 7489ft 172kts
31-Mar-17 08:38 33.930343 -116.818150 33 7519ft 174kts
31-Mar-17 08:39 33.963067 -116.774464 48 7532ft 176kts
31-Mar-17 08:40 33.986771 -116.733821 51 7530ft 176kts
31-Mar-17 08:41 34.013005 -116.686484 53 7519ft 174kts
31-Mar-17 08:42 34.039039 -116.639013 54 7499ft 173kts
31-Mar-17 08:43 34.065284 -116.590944 54 7496ft 172kts
31-Mar-17 08:44 34.091533 -116.542904 54 7497ft 172kts
31-Mar-17 08:45 34.132802 -116.532679 352 7249ft 197kts
31-Mar-17 08:46 34.190034 -116.550069 336 6435ft 205kts
31-Mar-17 08:47 34.243752 -116.570019 336 6445ft 200kts
31-Mar-17 08:48 34.296118 -116.588652 336 6459ft 195kts
31-Mar-17 08:49 34.346930 -116.606648 336 6474ft 186kts
31-Mar-17 08:50 34.395171 -116.623836 338 6493ft 175kts
31-Mar-17 08:51 34.441205 -116.639948 338 6497ft 171kts
31-Mar-17 08:52 34.485757 -116.655729 339 6491ft 155kts
31-Mar-17 08:53 34.524576 -116.669494 338 6494ft 137kts
31-Mar-17 08:54 34.559080 -116.681736 337 6140ft 136kts
31-Mar-17 08:55 34.595906 -116.694861 336 5537ft 140kts
31-Mar-17 08:56 34.629776 -116.706610 337 5052ft 139kts
31-Mar-17 08:57 34.660594 -116.722328 326 4748ft 133kts
31-Mar-17 08:58 34.689882 -116.742007 324 4722ft 110kts
31-Mar-17 08:59 34.715473 -116.758732 326 4744ft 109kts
31-Mar-17 09:00 34.743292 -116.777168 326 4712ft 114kts
31-Mar-17 09:01 34.771406 -116.795546 332 4674ft 118kts
31-Mar-17 09:02 34.803768 -116.789956 4 4115ft 112kts
31-Mar-17 09:03 34.829867 -116.788600 357 2936ft 91kts
31-Mar-17 09:04 34.833108 -116.754264 95 2905ft 114kts
31-Mar-17 09:05 34.833797 -116.717465 12 2972ft 100kts
31-Mar-17 09:06 34.849393 -116.732633 303 2609ft 73kts
31-Mar-17 09:07 34.851446 -116.757262 279 2279ft 70kts
31-Mar-17 09:08 34.851457 -116.780727 270 1929ft 55kts
31-Mar-17 09:09 34.852318 -116.783280 358 1929ft 0kts
31-Mar-17 09:10 34.852318 -116.783280 358 1929ft 0kts
31-Mar-17 09:11 34.852368 -116.783281 357 1929ft 4kts
31-Mar-17 09:12 34.852548 -116.788143 270 1929ft 18kts
31-Mar-17 09:13 34.854620 -116.790800 327 1929ft 10kts
31-Mar-17 09:14 34.858087 -116.790373 18 1929ft 0kts

Navigation Log

Ident Type
Flight plan parsing failed, navigation log unavailable